createdAt,value
2018-03-06T00:02:20.647Z,18.23
2018-03-06T00:04:48.343Z,22.63
2018-03-06T00:07:15.984Z,19.13
2018-03-06T00:09:43.685Z,17.37
2018-03-06T00:12:11.346Z,19.83
2018-03-06T00:14:39.034Z,19.77
2018-03-06T00:17:06.672Z,20.47
2018-03-06T00:19:34.353Z,22.03
2018-03-06T00:22:02.011Z,20.73
2018-03-06T00:24:29.696Z,21.47
2018-03-06T00:26:57.436Z,19.83
2018-03-06T00:29:25.033Z,20.13
2018-03-06T00:31:52.758Z,22.37
2018-03-06T00:34:20.490Z,19.60
2018-03-06T00:36:48.257Z,21.77
2018-03-06T00:39:15.940Z,19.90
2018-03-06T00:41:43.578Z,21.57
2018-03-06T00:44:11.264Z,26.87
2018-03-06T00:46:38.916Z,20.67
2018-03-06T00:49:06.605Z,21.37
2018-03-06T00:51:34.315Z,24.57
2018-03-06T00:54:01.985Z,23.03
2018-03-06T00:56:29.635Z,22.00
2018-03-06T00:58:57.310Z,24.47
2018-03-06T01:01:24.957Z,22.37
2018-03-06T01:03:52.650Z,20.70
2018-03-06T01:06:20.285Z,22.33
2018-03-06T01:08:47.991Z,20.90
2018-03-06T01:11:15.657Z,23.87
2018-03-06T01:13:43.308Z,22.90
2018-03-06T01:16:10.964Z,24.27
2018-03-06T01:18:38.652Z,23.60
2018-03-06T01:21:06.386Z,22.00
2018-03-06T01:23:34.052Z,23.60
2018-03-06T01:26:01.729Z,19.47
2018-03-06T01:28:29.447Z,22.10
2018-03-06T01:30:57.102Z,21.90
2018-03-06T01:33:24.740Z,25.23
2018-03-06T01:35:52.428Z,22.03
2018-03-06T01:38:20.069Z,24.90
2018-03-06T01:40:47.758Z,19.77
2018-03-06T01:43:15.412Z,20.33
2018-03-06T01:45:43.110Z,23.53
2018-03-06T01:48:10.740Z,21.63
2018-03-06T01:50:38.562Z,24.00
2018-03-06T01:53:06.208Z,21.17
2018-03-06T01:55:33.897Z,19.67
2018-03-06T01:58:01.580Z,20.67
2018-03-06T02:00:29.260Z,21.10
2018-03-06T02:02:56.920Z,20.80
2018-03-06T02:05:24.603Z,20.87
2018-03-06T02:07:52.224Z,19.30
2018-03-06T02:10:19.902Z,19.20
2018-03-06T02:12:47.560Z,18.90
2018-03-06T02:15:15.253Z,18.00
2018-03-06T02:17:42.896Z,19.10
2018-03-06T02:20:10.564Z,21.13
2018-03-06T02:22:38.215Z,21.57
2018-03-06T02:25:06.006Z,23.60
2018-03-06T02:27:33.664Z,24.00
2018-03-06T02:30:01.347Z,26.13
2018-03-06T02:32:28.989Z,28.07
2018-03-06T02:34:56.664Z,27.90
2018-03-06T02:37:24.311Z,30.60
2018-03-06T02:39:51.976Z,30.57
2018-03-06T02:42:19.611Z,35.63
2018-03-06T02:44:47.280Z,35.63
2018-03-06T02:47:14.952Z,40.33
2018-03-06T02:49:42.628Z,35.23
2018-03-06T02:52:10.271Z,35.53
2018-03-06T02:54:37.955Z,33.97
2018-03-06T02:57:05.605Z,35.03
2018-03-06T02:59:33.288Z,36.63
2018-03-06T03:02:00.915Z,36.33
2018-03-06T03:04:28.584Z,35.30
2018-03-06T03:06:56.232Z,36.40
2018-03-06T03:09:23.903Z,30.33
2018-03-06T03:11:51.558Z,32.87
2018-03-06T03:14:19.279Z,37.90
2018-03-06T03:16:46.915Z,35.97
2018-03-06T03:19:14.606Z,36.47
2018-03-06T03:21:42.216Z,37.60
2018-03-06T03:24:09.899Z,34.90
2018-03-06T03:26:37.548Z,31.67
2018-03-06T03:29:05.204Z,37.10
2018-03-06T03:31:32.860Z,34.57
2018-03-06T03:34:00.540Z,36.40
2018-03-06T03:36:28.157Z,38.37
2018-03-06T03:38:55.813Z,37.20
2018-03-06T03:41:23.503Z,33.87
2018-03-06T03:43:51.142Z,30.13
2018-03-06T03:46:18.831Z,30.33
2018-03-06T03:48:46.462Z,32.13
2018-03-06T03:51:14.168Z,35.60
2018-03-06T03:53:41.821Z,35.47
2018-03-06T03:56:12.337Z,38.00
2018-03-06T03:58:39.967Z,39.67
2018-03-06T04:01:07.644Z,37.20
2018-03-06T04:03:35.314Z,42.43
2018-03-06T04:06:02.998Z,37.60
2018-03-06T04:08:30.672Z,39.20
2018-03-06T04:10:58.396Z,36.43
2018-03-06T04:13:26.032Z,40.80
2018-03-06T04:15:53.704Z,36.00
2018-03-06T04:18:21.375Z,37.90
2018-03-06T04:20:49.054Z,43.20
2018-03-06T04:23:16.672Z,49.60
2018-03-06T04:25:44.352Z,45.67
2018-03-06T04:28:12.009Z,44.30
2018-03-06T04:30:39.695Z,43.17
2018-03-06T04:33:07.348Z,42.83
2018-03-06T04:35:35.046Z,41.90
2018-03-06T04:38:02.713Z,43.47
2018-03-06T04:40:30.384Z,42.00
2018-03-06T04:42:58.030Z,36.43
2018-03-06T04:45:25.708Z,32.70
2018-03-06T04:47:53.364Z,29.03
2018-03-06T04:50:21.043Z,43.00
2018-03-06T04:52:48.695Z,43.93
2018-03-06T04:55:16.362Z,39.07
2018-03-06T04:57:44.013Z,40.77
2018-03-06T05:00:11.741Z,39.50
2018-03-06T05:02:39.354Z,44.93
2018-03-06T05:05:07.031Z,41.63
2018-03-06T05:07:34.696Z,39.07
2018-03-06T05:10:02.449Z,38.00
2018-03-06T05:12:30.132Z,40.57
2018-03-06T05:14:57.809Z,41.17
2018-03-06T05:17:25.448Z,44.40
2018-03-06T05:19:53.104Z,42.27
2018-03-06T05:22:20.732Z,41.77
2018-03-06T05:24:48.408Z,44.80
2018-03-06T05:27:16.048Z,44.77
2018-03-06T05:29:43.744Z,42.90
2018-03-06T05:32:11.475Z,45.20
2018-03-06T05:34:39.175Z,40.70
2018-03-06T05:37:06.799Z,47.97
2018-03-06T05:39:34.524Z,43.03
2018-03-06T05:42:02.158Z,39.43
2018-03-06T05:44:29.840Z,42.70
2018-03-06T05:46:57.460Z,39.77
2018-03-06T05:49:25.159Z,41.33
2018-03-06T05:51:52.831Z,42.00
2018-03-06T05:54:20.456Z,44.57
2018-03-06T05:56:48.149Z,45.13
2018-03-06T05:59:15.861Z,38.63
2018-03-06T06:01:43.540Z,40.13
2018-03-06T06:04:11.180Z,43.17
2018-03-06T06:06:38.878Z,39.37
2018-03-06T06:09:06.531Z,44.97
2018-03-06T06:11:34.212Z,45.37
2018-03-06T06:14:01.880Z,44.70
2018-03-06T06:16:29.520Z,49.87
2018-03-06T06:18:57.127Z,43.63
2018-03-06T06:21:24.827Z,46.40
2018-03-06T06:23:52.457Z,39.23
2018-03-06T06:26:20.134Z,46.70
2018-03-06T06:28:47.737Z,48.53
2018-03-06T06:31:15.380Z,42.47
2018-03-06T06:33:43.065Z,43.30
2018-03-06T06:36:10.723Z,50.93
2018-03-06T06:38:38.372Z,43.70
2018-03-06T06:41:06.072Z,47.20
2018-03-06T06:43:33.675Z,39.47
2018-03-06T06:46:01.341Z,45.43
2018-03-06T06:48:28.946Z,43.90
2018-03-06T06:50:56.636Z,42.20
2018-03-06T06:53:24.320Z,38.83
2018-03-06T06:55:51.977Z,37.60
2018-03-06T06:58:19.591Z,46.70
2018-03-06T07:00:47.264Z,44.90
2018-03-06T07:03:14.864Z,41.50
2018-03-06T07:05:42.540Z,40.20
2018-03-06T07:08:10.241Z,39.20
2018-03-06T07:10:37.884Z,44.57
2018-03-06T07:13:05.488Z,39.10
2018-03-06T07:15:33.138Z,43.40
2018-03-06T07:18:00.742Z,40.67
2018-03-06T07:20:28.392Z,40.23
2018-03-06T07:22:56.017Z,33.23
2018-03-06T07:25:23.676Z,35.07
2018-03-06T07:27:51.304Z,36.67
2018-03-06T07:30:18.966Z,35.73
2018-03-06T07:32:46.575Z,37.90
2018-03-06T07:35:14.217Z,38.20
2018-03-06T07:37:41.839Z,36.70
2018-03-06T07:40:09.738Z,36.47
2018-03-06T07:42:37.364Z,36.83
2018-03-06T07:45:04.992Z,37.23
2018-03-06T07:47:32.647Z,38.20
2018-03-06T07:50:00.268Z,37.37
2018-03-06T07:52:27.928Z,40.40
2018-03-06T07:54:55.522Z,44.00
2018-03-06T07:57:23.163Z,41.97
2018-03-06T07:59:50.816Z,38.07
2018-03-06T08:02:18.465Z,40.57
2018-03-06T08:04:46.157Z,38.30
2018-03-06T08:07:13.842Z,43.53
2018-03-06T08:09:41.472Z,39.77
2018-03-06T08:12:09.128Z,38.00
2018-03-06T08:14:36.744Z,39.57
2018-03-06T08:17:04.460Z,48.53
2018-03-06T08:19:32.077Z,41.77
2018-03-06T08:21:59.755Z,45.17
2018-03-06T08:24:27.416Z,46.73
2018-03-06T08:26:55.164Z,48.17
2018-03-06T08:29:22.776Z,46.47
2018-03-06T08:31:50.455Z,48.93
2018-03-06T08:36:50.745Z,37.70
2018-03-06T08:39:18.369Z,41.60
2018-03-06T08:41:46.075Z,44.00
2018-03-06T08:44:13.746Z,39.43
2018-03-06T08:46:41.513Z,41.73
2018-03-06T08:49:09.161Z,43.70
2018-03-06T08:51:36.832Z,49.60
2018-03-06T08:54:04.433Z,47.33
2018-03-06T08:56:32.154Z,44.03
2018-03-06T08:58:59.760Z,46.80
2018-03-06T09:01:27.414Z,43.60
2018-03-06T09:03:55.038Z,51.03
2018-03-06T09:06:22.751Z,58.93
2018-03-06T09:08:50.353Z,43.57
2018-03-06T09:11:17.996Z,53.77
2018-03-06T09:13:45.765Z,53.07
2018-03-06T09:16:13.411Z,50.87
2018-03-06T09:18:41.028Z,50.97
2018-03-06T09:21:08.685Z,53.00
2018-03-06T09:23:36.460Z,55.50
2018-03-06T09:26:04.122Z,52.83
2018-03-06T09:28:31.724Z,53.57
2018-03-06T09:30:59.369Z,52.10
2018-03-06T09:33:26.981Z,59.37
2018-03-06T09:35:54.639Z,50.53
2018-03-06T09:38:22.254Z,57.53
2018-03-06T09:40:50.013Z,52.20
2018-03-06T09:43:17.628Z,49.57
2018-03-06T09:45:45.353Z,58.30
2018-03-06T09:48:13.013Z,56.20
2018-03-06T09:50:40.693Z,53.07
2018-03-06T09:53:08.356Z,53.50
2018-03-06T09:55:35.964Z,53.97
2018-03-06T09:58:03.698Z,47.17
2018-03-06T10:00:31.317Z,51.30
2018-03-06T10:02:59.014Z,57.93
2018-03-06T10:05:26.649Z,55.43
2018-03-06T10:07:54.338Z,54.60
2018-03-06T10:10:21.960Z,54.70
2018-03-06T10:12:49.629Z,54.30
2018-03-06T10:15:17.284Z,54.10
2018-03-06T10:17:44.961Z,56.20
2018-03-06T10:20:12.600Z,53.73
2018-03-06T10:22:40.277Z,55.03
2018-03-06T10:25:07.906Z,49.97
2018-03-06T10:27:35.652Z,54.73
2018-03-06T10:30:03.280Z,56.00
2018-03-06T10:32:30.958Z,45.67
2018-03-06T10:34:58.577Z,57.93
2018-03-06T10:37:26.252Z,58.40
2018-03-06T10:39:53.873Z,53.17
2018-03-06T10:42:21.524Z,56.87
2018-03-06T10:44:49.156Z,58.80
2018-03-06T10:47:17.014Z,53.97
2018-03-06T10:49:44.681Z,57.10
2018-03-06T10:52:12.344Z,61.40
2018-03-06T10:54:39.982Z,62.53
2018-03-06T10:57:07.663Z,54.93
2018-03-06T10:59:35.303Z,60.53
2018-03-06T11:02:03.844Z,63.53
2018-03-06T11:04:31.468Z,57.20
2018-03-06T11:06:59.161Z,58.03
2018-03-06T11:09:26.790Z,56.13
2018-03-06T11:11:54.486Z,67.07
2018-03-06T11:14:22.176Z,57.50
2018-03-06T11:16:49.860Z,62.13
2018-03-06T11:19:17.472Z,61.93
2018-03-06T11:21:45.144Z,63.80
2018-03-06T11:24:12.829Z,63.00
2018-03-06T11:26:40.482Z,60.90
2018-03-06T11:29:08.112Z,65.83
2018-03-06T11:31:35.785Z,64.10
2018-03-06T11:34:03.392Z,56.00
2018-03-06T11:36:31.043Z,59.13
2018-03-06T11:38:58.721Z,63.17
2018-03-06T11:41:26.396Z,60.30
2018-03-06T11:43:54.053Z,63.30
2018-03-06T11:46:21.668Z,64.70
2018-03-06T11:48:49.375Z,63.80
2018-03-06T11:51:17.000Z,64.40
2018-03-06T11:53:44.675Z,60.27
2018-03-06T11:56:12.300Z,69.07
2018-03-06T11:58:39.986Z,68.97
2018-03-06T12:01:07.592Z,67.83
2018-03-06T12:03:35.252Z,61.27
2018-03-06T12:06:02.896Z,63.50
2018-03-06T12:08:30.571Z,55.83
2018-03-06T12:10:58.217Z,62.93
2018-03-06T12:13:25.905Z,61.70
2018-03-06T12:15:53.542Z,63.90
2018-03-06T12:18:21.216Z,62.10
2018-03-06T12:20:48.836Z,60.97
2018-03-06T12:23:16.501Z,59.47
2018-03-06T12:25:44.164Z,60.57
2018-03-06T12:28:11.829Z,67.40
2018-03-06T12:30:39.487Z,60.10
2018-03-06T12:33:07.172Z,58.40
2018-03-06T12:35:34.791Z,65.53
2018-03-06T12:38:02.488Z,59.63
2018-03-06T12:40:30.111Z,59.67
2018-03-06T12:42:57.821Z,58.77
2018-03-06T12:45:25.432Z,59.93
2018-03-06T12:47:53.096Z,62.27
2018-03-06T12:50:20.712Z,59.87
2018-03-06T12:52:48.375Z,62.40
2018-03-06T12:55:15.994Z,57.17
2018-03-06T12:57:43.692Z,54.40
2018-03-06T13:00:11.306Z,63.60
2018-03-06T13:02:39.006Z,56.80
2018-03-06T13:05:06.641Z,56.37
2018-03-06T13:07:34.330Z,58.87
2018-03-06T13:10:01.973Z,67.83
2018-03-06T13:12:29.628Z,58.87
2018-03-06T13:14:57.247Z,58.87
2018-03-06T13:17:24.929Z,60.80
2018-03-06T13:19:52.601Z,57.97
2018-03-06T13:22:20.264Z,60.50
2018-03-06T13:24:47.874Z,59.20
2018-03-06T13:27:15.529Z,57.40
2018-03-06T13:29:43.160Z,59.23
2018-03-06T13:32:10.908Z,62.13
2018-03-06T13:34:38.533Z,58.73
2018-03-06T13:37:06.184Z,62.50
2018-03-06T13:39:33.796Z,60.93
2018-03-06T13:42:01.525Z,60.07
2018-03-06T13:44:29.141Z,54.67
2018-03-06T13:46:57.400Z,58.60
2018-03-06T13:49:25.114Z,55.77
2018-03-06T13:51:52.776Z,58.83
2018-03-06T13:54:20.456Z,57.40
2018-03-06T13:56:48.479Z,54.47
2018-03-06T13:59:16.142Z,57.73
2018-03-06T14:01:43.800Z,58.93
2018-03-06T14:04:11.470Z,57.30
2018-03-06T14:06:39.081Z,57.03
2018-03-06T14:09:06.760Z,57.50
2018-03-06T14:11:34.416Z,57.33
2018-03-06T14:14:02.073Z,63.03
2018-03-06T14:16:29.729Z,56.00
2018-03-06T14:18:57.459Z,52.40
2018-03-06T14:21:25.076Z,56.50
2018-03-06T14:23:52.796Z,54.00
2018-03-06T14:26:20.406Z,55.40
2018-03-06T14:28:48.070Z,54.80
2018-03-06T14:31:15.685Z,58.30
2018-03-06T14:33:43.352Z,56.87
2018-03-06T14:36:11.188Z,57.13
2018-03-06T14:38:38.874Z,56.70
2018-03-06T14:41:06.499Z,58.10
2018-03-06T14:43:34.169Z,55.47
2018-03-06T14:46:01.808Z,52.90
2018-03-06T14:48:29.472Z,56.37
2018-03-06T14:50:57.144Z,61.90
2018-03-06T14:53:24.797Z,57.80
2018-03-06T14:55:52.477Z,53.37
2018-03-06T14:58:20.148Z,58.43
2018-03-06T15:00:47.767Z,55.00
2018-03-06T15:03:15.428Z,55.90
2018-03-06T15:05:43.064Z,60.47
2018-03-06T15:08:10.904Z,56.83
2018-03-06T15:10:38.667Z,54.77
2018-03-06T15:13:06.460Z,55.53
2018-03-06T15:15:34.101Z,54.97
2018-03-06T15:18:01.788Z,57.43
2018-03-06T15:20:29.510Z,57.03
2018-03-06T15:22:57.181Z,51.97
2018-03-06T15:25:24.813Z,54.20
2018-03-06T15:27:52.476Z,55.97
2018-03-06T15:30:20.103Z,56.60
2018-03-06T15:32:47.773Z,57.23
2018-03-06T15:35:15.412Z,54.63
2018-03-06T15:37:43.109Z,57.10
2018-03-06T15:40:10.782Z,50.90
2018-03-06T15:42:38.498Z,52.93
2018-03-06T15:45:06.130Z,53.50
2018-03-06T15:47:33.792Z,53.43
2018-03-06T15:50:01.424Z,55.63
2018-03-06T15:52:29.088Z,51.17
2018-03-06T15:54:56.707Z,51.07
2018-03-06T15:57:24.437Z,53.60
2018-03-06T15:59:52.097Z,51.70
2018-03-06T16:02:19.725Z,56.90
2018-03-06T16:04:47.408Z,55.30
2018-03-06T16:07:15.081Z,49.97
2018-03-06T16:09:42.752Z,52.43
2018-03-06T16:12:10.385Z,56.30
2018-03-06T16:14:38.057Z,50.93
2018-03-06T16:17:05.676Z,53.47
2018-03-06T16:19:33.332Z,55.17
2018-03-06T16:22:00.954Z,57.43
2018-03-06T16:24:28.600Z,54.93
2018-03-06T16:26:56.213Z,54.80
2018-03-06T16:29:23.880Z,55.23
2018-03-06T16:31:51.493Z,53.07
2018-03-06T16:34:19.145Z,57.37
2018-03-06T16:36:46.761Z,51.77
2018-03-06T16:39:14.416Z,54.83
2018-03-06T16:41:42.033Z,60.93
2018-03-06T16:44:09.818Z,61.60
2018-03-06T16:46:37.445Z,58.73
2018-03-06T16:49:05.093Z,60.00
2018-03-06T16:51:32.697Z,58.40
2018-03-06T16:54:00.408Z,57.88
2018-03-06T16:56:28.024Z,60.97
2018-03-06T16:58:55.684Z,57.23
2018-03-06T17:01:23.290Z,58.20
2018-03-06T17:03:50.962Z,63.53
2018-03-06T17:06:18.580Z,64.40
2018-03-06T17:08:46.236Z,72.07
2018-03-06T17:11:13.867Z,74.03
2018-03-06T17:13:41.543Z,57.83
2018-03-06T17:16:09.168Z,64.13
2018-03-06T17:18:36.860Z,62.50
2018-03-06T17:21:04.473Z,66.20
2018-03-06T17:23:32.128Z,68.70
2018-03-06T17:25:59.748Z,64.43
2018-03-06T17:28:27.397Z,63.33
2018-03-06T17:30:55.075Z,62.13
2018-03-06T17:33:22.768Z,59.20
2018-03-06T17:35:50.383Z,60.53
2018-03-06T17:38:17.999Z,60.80
2018-03-06T17:40:45.666Z,62.30
2018-03-06T17:43:13.283Z,64.80
2018-03-06T17:45:40.944Z,64.07
2018-03-06T17:48:08.566Z,69.27
2018-03-06T17:50:36.240Z,63.57
2018-03-06T17:53:03.892Z,65.47
2018-03-06T17:55:31.575Z,63.40
2018-03-06T17:57:59.208Z,66.97
2018-03-06T18:00:26.864Z,66.03
2018-03-06T18:02:54.480Z,61.27
2018-03-06T18:05:22.159Z,67.07
2018-03-06T18:07:49.776Z,78.10
2018-03-06T18:10:17.450Z,83.73
2018-03-06T18:12:45.096Z,70.20
2018-03-06T18:15:12.760Z,73.43
2018-03-06T18:17:40.445Z,77.47
2018-03-06T18:20:08.101Z,81.73
2018-03-06T18:22:35.728Z,92.00
2018-03-06T18:25:03.460Z,82.80
2018-03-06T18:27:31.098Z,69.50
2018-03-06T18:29:58.755Z,56.40
2018-03-06T18:32:26.370Z,60.97
2018-03-06T18:34:54.031Z,58.10
2018-03-06T18:37:21.680Z,63.10
2018-03-06T18:39:49.335Z,62.97
2018-03-06T18:42:16.958Z,63.23
2018-03-06T18:44:44.624Z,60.03
2018-03-06T18:47:12.245Z,63.60
2018-03-06T18:49:51.903Z,69.30
2018-03-06T18:52:19.517Z,77.73
2018-03-06T18:54:47.187Z,67.10
2018-03-06T18:57:14.812Z,64.47
2018-03-06T18:59:42.659Z,65.27
2018-03-06T19:02:22.325Z,64.93
2018-03-06T19:05:01.810Z,61.90
2018-03-06T19:07:29.432Z,62.93
2018-03-06T19:09:57.237Z,63.87
2018-03-06T19:12:24.963Z,66.50
2018-03-06T19:14:52.648Z,63.57
2018-03-06T19:17:20.288Z,62.70
2018-03-06T19:19:48.045Z,66.87
2018-03-06T19:22:15.705Z,229.93
2018-03-06T19:24:43.397Z,80.23
2018-03-06T19:27:11.025Z,72.00
2018-03-06T19:29:38.646Z,68.93
2018-03-06T19:32:06.292Z,63.90
2018-03-06T19:34:33.914Z,69.10
2018-03-06T19:37:01.570Z,67.90
2018-03-06T19:39:29.196Z,63.20
2018-03-06T19:41:56.901Z,70.40
2018-03-06T19:44:24.531Z,69.10
2018-03-06T19:46:52.265Z,68.43
2018-03-06T19:49:19.944Z,62.47
2018-03-06T19:51:47.748Z,66.60
2018-03-06T19:54:15.406Z,72.30
2018-03-06T19:56:43.080Z,61.80
2018-03-06T19:59:10.725Z,76.80
2018-03-06T20:01:38.382Z,66.90
2018-03-06T20:04:06.025Z,67.50
2018-03-06T20:06:33.684Z,69.43
2018-03-06T20:09:01.295Z,77.50
2018-03-06T20:11:28.935Z,96.13
2018-03-06T20:13:56.598Z,72.33
2018-03-06T20:16:24.350Z,66.57
2018-03-06T20:18:57.617Z,70.00
2018-03-06T20:21:25.236Z,64.27
2018-03-06T20:23:52.970Z,71.70
2018-03-06T20:26:20.618Z,68.53
2018-03-06T20:28:48.289Z,64.53
2018-03-06T20:31:22.577Z,70.40
2018-03-06T20:33:50.240Z,72.87
2018-03-06T20:36:17.862Z,67.47
2018-03-06T20:38:51.088Z,69.97
2018-03-06T20:41:18.728Z,66.37
2018-03-06T20:43:46.422Z,74.93
2018-03-06T20:46:19.696Z,79.53
2018-03-06T20:48:47.361Z,74.73
2018-03-06T20:51:15.058Z,73.07
2018-03-06T20:53:48.229Z,70.17
2018-03-06T20:56:15.872Z,68.40
2018-03-06T20:58:43.548Z,73.27
2018-03-06T21:01:11.221Z,68.63
2018-03-06T21:03:38.938Z,66.17
2018-03-06T21:06:06.568Z,67.83
2018-03-06T21:08:34.271Z,61.97
2018-03-06T21:11:01.902Z,61.73
2018-03-06T21:13:29.560Z,61.70
2018-03-06T21:15:57.175Z,60.77
2018-03-06T21:18:24.873Z,65.10
2018-03-06T21:20:52.515Z,64.50
2018-03-06T21:23:20.185Z,67.07
2018-03-06T21:25:47.806Z,63.53
2018-03-06T21:28:15.418Z,65.57
2018-03-06T21:30:43.091Z,62.67
2018-03-06T21:33:10.745Z,64.07
2018-03-06T21:35:38.433Z,60.47
2018-03-06T21:38:06.037Z,60.90
2018-03-06T21:40:33.731Z,59.73
2018-03-06T21:43:01.356Z,58.80
2018-03-06T21:45:29.016Z,53.97
2018-03-06T21:47:56.635Z,56.97
2018-03-06T21:50:24.312Z,63.17
2018-03-06T21:52:51.951Z,73.20
2018-03-06T21:55:19.633Z,78.80
2018-03-06T21:57:47.265Z,82.37
2018-03-06T22:00:14.897Z,67.53
2018-03-06T22:02:42.583Z,55.90
2018-03-06T22:05:10.240Z,46.30
2018-03-06T22:07:37.900Z,49.63
2018-03-06T22:10:05.545Z,49.50
2018-03-06T22:12:33.196Z,65.93
2018-03-06T22:15:00.820Z,54.77
2018-03-06T22:17:28.471Z,48.00
2018-03-06T22:19:56.086Z,45.50
2018-03-06T22:22:23.743Z,45.07
2018-03-06T22:24:51.364Z,45.90
2018-03-06T22:27:19.009Z,42.57
2018-03-06T22:29:46.656Z,45.03
2018-03-06T22:32:14.328Z,45.23
2018-03-06T22:34:41.944Z,41.67
2018-03-06T22:37:09.559Z,47.23
2018-03-06T22:39:37.324Z,43.47
2018-03-06T22:42:04.931Z,44.10
2018-03-06T22:44:32.662Z,47.70
2018-03-06T22:47:00.283Z,47.20
2018-03-06T22:49:27.948Z,42.67
2018-03-06T22:51:55.567Z,40.13
2018-03-06T22:54:23.222Z,35.30
2018-03-06T22:56:51.230Z,34.70
2018-03-06T22:59:18.887Z,29.60
2018-03-06T23:01:46.508Z,35.33
2018-03-06T23:04:14.159Z,38.27
2018-03-06T23:06:41.790Z,26.00
2018-03-06T23:09:09.462Z,27.70
2018-03-06T23:11:37.132Z,30.10
2018-03-06T23:14:04.798Z,36.43
2018-03-06T23:16:32.426Z,125.60
2018-03-06T23:19:00.932Z,33.70
2018-03-06T23:21:28.592Z,25.07
2018-03-06T23:23:56.200Z,25.10
2018-03-06T23:26:23.887Z,30.00
2018-03-06T23:28:51.508Z,24.20
2018-03-06T23:31:19.159Z,27.10
2018-03-06T23:33:46.766Z,24.23
2018-03-06T23:36:14.440Z,25.70
2018-03-06T23:38:42.049Z,21.83
2018-03-06T23:41:09.728Z,21.73
2018-03-06T23:43:37.341Z,22.97
2018-03-06T23:46:05.014Z,20.80
2018-03-06T23:48:32.627Z,20.60
2018-03-06T23:51:00.279Z,25.10
2018-03-06T23:53:27.905Z,21.60
2018-03-06T23:55:55.552Z,22.93
2018-03-06T23:58:28.731Z,20.67
